Time;durP1;ratioP1;P1;durP2;ratioP2;P2;SDS_P1;SDS_P2;PMS_P1;PMS_P2;Temp;Humidity;BMP_temperature;BMP_pressure;BME280_temperature;BME280_humidity;BME280_pressure;Samples;Min_cycle;Max_cycle;Signal;HPM_P1;HPM_P2
2022/08/26 00:01:52;;;;;;;;;;;12.00;99.90;;;;;;5069919;28;20420;-58
2022/08/26 00:04:20;;;;;;;;;;;12.00;99.90;;;;;;5087721;28;19932;-58
2022/08/26 00:06:48;;;;;;;;;;;12.00;99.90;;;;;;5073642;28;19998;-57
2022/08/26 00:09:15;;;;;;;;;;;11.90;99.90;;;;;;5085217;28;19947;-57
2022/08/26 00:11:44;;;;;;;;;;;11.90;99.90;;;;;;5073209;28;19936;-57
2022/08/26 00:14:12;;;;;;;;;;;11.80;99.90;;;;;;5081237;28;19924;-57
2022/08/26 00:16:40;;;;;;;;;;;11.90;99.90;;;;;;5073738;28;20716;-57
2022/08/26 00:19:16;;;;;;;;;;;11.80;99.90;;;;;;5087811;28;19931;-57
2022/08/26 00:21:48;;;;;;;;;;;11.80;99.90;;;;;;5083708;28;19924;-56
2022/08/26 00:24:17;;;;;;;;;;;11.80;99.90;;;;;;5081676;28;19939;-57
2022/08/26 00:26:45;;;;;;;;;;;11.70;99.90;;;;;;5075815;28;19924;-58
2022/08/26 00:29:12;;;;;;;;;;;11.70;99.90;;;;;;5085040;28;19935;-57
2022/08/26 00:31:41;;;;;;;;;;;11.70;99.90;;;;;;5079230;28;20414;-57
2022/08/26 00:34:12;;;;;;;;;;;11.60;99.90;;;;;;5087285;28;19924;-57
2022/08/26 00:36:40;;;;;;;;;;;11.60;99.90;;;;;;5078011;28;20398;-57
2022/08/26 00:39:07;;;;;;;;;;;11.60;99.90;;;;;;5071066;28;19935;-61
2022/08/26 00:41:37;;;;;;;;;;;11.60;99.90;;;;;;5074241;28;19928;-57
2022/08/26 00:44:05;;;;;;;;;;;11.50;99.90;;;;;;5081319;28;19928;-58
2022/08/26 00:46:35;;;;;;;;;;;11.50;99.90;;;;;;5087483;28;19928;-56
2022/08/26 00:49:07;;;;;;;;;;;11.50;99.90;;;;;;5081376;28;19928;-57
2022/08/26 00:51:44;;;;;;;;;;;11.50;99.90;;;;;;5073441;28;19924;-57
2022/08/26 00:54:12;;;;;;;;;;;11.40;99.90;;;;;;5072555;28;19924;-56
2022/08/26 00:56:39;;;;;;;;;;;11.40;99.90;;;;;;5072680;28;19925;-56
2022/08/26 00:59:09;;;;;;;;;;;11.40;99.90;;;;;;5083950;28;19924;-57
2022/08/26 01:01:38;;;;;;;;;;;11.40;99.90;;;;;;5073382;28;19924;-57
2022/08/26 01:04:05;;;;;;;;;;;11.40;99.90;;;;;;5080104;28;19937;-57
2022/08/26 01:06:33;;;;;;;;;;;11.40;99.90;;;;;;5069005;28;19932;-56
2022/08/26 01:09:01;;;;;;;;;;;11.40;99.90;;;;;;5086190;28;19924;-57
2022/08/26 01:11:29;;;;;;;;;;;11.30;99.90;;;;;;5073960;28;19924;-57
2022/08/26 01:13:58;;;;;;;;;;;11.30;99.90;;;;;;5079427;28;19928;-56
2022/08/26 01:16:26;;;;;;;;;;;11.30;99.90;;;;;;5075934;28;19924;-56
2022/08/26 01:18:55;;;;;;;;;;;11.30;99.90;;;;;;5076539;28;19928;-57
2022/08/26 01:21:42;;;;;;;;;;;11.30;99.90;;;;;;5084648;28;19932;-58
2022/08/26 01:24:10;;;;;;;;;;;11.30;99.90;;;;;;5088951;28;19928;-56
2022/08/26 01:26:41;;;;;;;;;;;11.30;99.90;;;;;;5075236;28;19936;-58
2022/08/26 01:29:14;;;;;;;;;;;11.30;99.90;;;;;;5084029;28;20314;-58
2022/08/26 01:31:44;;;;;;;;;;;11.30;99.90;;;;;;5079890;28;19947;-58
2022/08/26 01:34:15;;;;;;;;;;;11.30;99.90;;;;;;5071398;28;19932;-58
2022/08/26 01:36:43;;;;;;;;;;;11.40;99.90;;;;;;5075354;28;19931;-58
2022/08/26 01:39:17;;;;;;;;;;;11.40;99.90;;;;;;5088283;28;19939;-57
2022/08/26 01:41:45;;;;;;;;;;;11.40;99.90;;;;;;5077420;28;19931;-58
2022/08/26 01:44:14;;;;;;;;;;;11.40;99.90;;;;;;5077770;28;19928;-58
2022/08/26 01:46:43;;;;;;;;;;;11.30;99.90;;;;;;5077384;28;19928;-58
2022/08/26 01:49:12;;;;;;;;;;;11.30;99.90;;;;;;5071237;28;19932;-58
2022/08/26 01:51:40;;;;;;;;;;;11.30;99.90;;;;;;5071914;28;19932;-57
2022/08/26 01:54:07;;;;;;;;;;;11.30;99.90;;;;;;5071957;28;20423;-57
2022/08/26 01:56:40;;;;;;;;;;;11.30;99.90;;;;;;5070721;28;19932;-58
2022/08/26 01:59:09;;;;;;;;;;;11.30;99.90;;;;;;5071398;28;20431;-57
2022/08/26 02:01:38;;;;;;;;;;;11.30;99.90;;;;;;5071791;28;19924;-59
2022/08/26 02:04:14;;;;;;;;;;;11.20;99.90;;;;;;5071969;28;19931;-58
2022/08/26 02:06:42;;;;;;;;;;;11.20;99.90;;;;;;5071529;28;20449;-58
2022/08/26 02:09:10;;;;;;;;;;;11.20;99.90;;;;;;5071794;28;20307;-58
2022/08/26 02:11:38;;;;;;;;;;;11.20;99.90;;;;;;5071637;28;19925;-57
2022/08/26 02:14:17;;;;;;;;;;;11.20;99.90;;;;;;5071615;28;19936;-58
2022/08/26 02:16:47;;;;;;;;;;;11.20;99.90;;;;;;5071664;28;19924;-58
2022/08/26 02:19:17;;;;;;;;;;;11.20;99.90;;;;;;5071772;28;19924;-57
2022/08/26 02:21:47;;;;;;;;;;;11.30;99.90;;;;;;5071658;28;19928;-58
2022/08/26 02:24:20;;;;;;;;;;;11.30;99.90;;;;;;5071673;28;19924;-55
2022/08/26 02:26:47;;;;;;;;;;;11.30;99.90;;;;;;5071642;28;19925;-56
2022/08/26 02:29:19;;;;;;;;;;;11.40;99.90;;;;;;5071691;28;19924;-56
2022/08/26 02:31:47;;;;;;;;;;;11.40;99.90;;;;;;5071646;28;19932;-56
2022/08/26 02:34:20;;;;;;;;;;;11.40;99.90;;;;;;5071513;28;20257;-56
2022/08/26 02:36:48;;;;;;;;;;;11.40;99.90;;;;;;5071559;28;19932;-56
2022/08/26 02:39:17;;;;;;;;;;;11.40;99.90;;;;;;5071580;28;19924;-56
2022/08/26 02:41:48;;;;;;;;;;;11.50;99.90;;;;;;5071404;28;19924;-56
2022/08/26 02:44:16;;;;;;;;;;;11.50;99.90;;;;;;5071415;28;19925;-56
2022/08/26 02:46:44;;;;;;;;;;;11.50;99.90;;;;;;5071270;28;19928;-56
2022/08/26 02:49:16;;;;;;;;;;;11.60;99.90;;;;;;5071398;28;19952;-56
2022/08/26 02:51:44;;;;;;;;;;;11.60;99.90;;;;;;5071442;28;19928;-56
2022/08/26 02:54:12;;;;;;;;;;;11.60;99.90;;;;;;5069669;28;19931;-56
2022/08/26 02:56:41;;;;;;;;;;;11.60;99.90;;;;;;5071532;28;19925;-56
2022/08/26 02:59:11;;;;;;;;;;;11.60;99.90;;;;;;5071397;28;19924;-55
2022/08/26 03:01:39;;;;;;;;;;;11.60;99.90;;;;;;5071399;28;20429;-55
2022/08/26 03:04:08;;;;;;;;;;;11.70;99.90;;;;;;5073416;28;20419;-55
2022/08/26 03:06:36;;;;;;;;;;;11.70;99.90;;;;;;5075449;28;19924;-56
2022/08/26 03:09:04;;;;;;;;;;;11.70;99.90;;;;;;5075401;28;19928;-57
2022/08/26 03:11:32;;;;;;;;;;;11.80;99.90;;;;;;5073620;28;19931;-58
2022/08/26 03:13:59;;;;;;;;;;;11.80;99.90;;;;;;5074672;28;19924;-57
2022/08/26 03:16:31;;;;;;;;;;;11.80;99.90;;;;;;5074577;28;20311;-58
2022/08/26 03:18:59;;;;;;;;;;;11.80;99.90;;;;;;5074836;28;19924;-58
2022/08/26 03:21:29;;;;;;;;;;;11.80;99.90;;;;;;5074062;28;21578;-57
2022/08/26 03:23:57;;;;;;;;;;;11.80;99.90;;;;;;5074800;28;19925;-57
2022/08/26 03:26:25;;;;;;;;;;;11.80;99.90;;;;;;5074732;28;20291;-57
2022/08/26 03:31:40;;;;;;;;;;;11.80;99.90;;;;;;5074252;28;19947;-58
2022/08/26 03:34:08;;;;;;;;;;;11.80;99.90;;;;;;5074409;28;19924;-58
2022/08/26 03:36:37;;;;;;;;;;;11.80;99.90;;;;;;5073110;28;19924;-55
2022/08/26 03:39:08;;;;;;;;;;;11.70;99.90;;;;;;5074288;28;19924;-56
2022/08/26 03:41:35;;;;;;;;;;;11.70;99.90;;;;;;5074413;28;19925;-56
2022/08/26 03:44:04;;;;;;;;;;;11.70;99.90;;;;;;5074687;28;20422;-55
2022/08/26 03:46:32;;;;;;;;;;;11.60;99.90;;;;;;5074275;28;19924;-56
2022/08/26 03:49:00;;;;;;;;;;;11.60;99.90;;;;;;5073467;28;19925;-56
2022/08/26 03:51:28;;;;;;;;;;;11.60;99.90;;;;;;5074061;28;20379;-56
2022/08/26 03:53:59;;;;;;;;;;;11.60;99.90;;;;;;5072904;28;20398;-56
2022/08/26 03:56:26;;;;;;;;;;;11.60;99.90;;;;;;5074088;28;20261;-57
2022/08/26 03:58:54;;;;;;;;;;;11.60;99.90;;;;;;5074082;28;19924;-56
2022/08/26 04:01:21;;;;;;;;;;;11.60;99.90;;;;;;5073924;28;20403;-56
2022/08/26 04:03:58;;;;;;;;;;;11.60;99.90;;;;;;5073803;28;19924;-57
2022/08/26 04:06:31;;;;;;;;;;;11.70;99.90;;;;;;5073913;28;19939;-57
2022/08/26 04:09:00;;;;;;;;;;;11.70;99.90;;;;;;5073675;28;20429;-56
2022/08/26 04:11:31;;;;;;;;;;;11.80;99.90;;;;;;5073721;28;19924;-56
2022/08/26 04:14:02;;;;;;;;;;;11.80;99.90;;;;;;5073596;28;19924;-58
2022/08/26 04:16:31;;;;;;;;;;;11.80;99.90;;;;;;5072571;28;19924;-57
2022/08/26 04:18:58;;;;;;;;;;;11.80;99.90;;;;;;5073612;28;19933;-56
2022/08/26 04:21:27;;;;;;;;;;;11.80;99.90;;;;;;5072250;28;19925;-57
2022/08/26 04:23:55;;;;;;;;;;;11.90;99.90;;;;;;5073293;28;19925;-56
2022/08/26 04:26:24;;;;;;;;;;;11.90;99.90;;;;;;5105546;28;19924;-55
2022/08/26 04:28:53;;;;;;;;;;;11.90;99.90;;;;;;5073699;28;20376;-56
2022/08/26 04:31:21;;;;;;;;;;;11.90;99.90;;;;;;5073330;28;19928;-56
2022/08/26 04:33:49;;;;;;;;;;;11.90;99.90;;;;;;5073160;28;19924;-56
2022/08/26 04:36:17;;;;;;;;;;;12.00;99.90;;;;;;5073319;28;19931;-56
2022/08/26 04:38:46;;;;;;;;;;;12.00;99.90;;;;;;5073275;28;19924;-56
2022/08/26 04:41:14;;;;;;;;;;;12.00;99.90;;;;;;5073084;28;19924;-55
2022/08/26 04:43:44;;;;;;;;;;;12.00;99.90;;;;;;5073030;28;19944;-56
2022/08/26 04:46:12;;;;;;;;;;;12.00;99.90;;;;;;5073009;28;19924;-56
2022/08/26 04:48:40;;;;;;;;;;;12.00;99.90;;;;;;5070581;28;20363;-57
2022/08/26 04:51:08;;;;;;;;;;;12.00;99.90;;;;;;5070248;28;19949;-56
2022/08/26 04:53:36;;;;;;;;;;;12.10;99.90;;;;;;5069693;28;20433;-56
2022/08/26 04:56:04;;;;;;;;;;;12.00;99.90;;;;;;5069364;28;20380;-56
2022/08/26 04:58:31;;;;;;;;;;;12.10;99.90;;;;;;5081511;28;20280;-56
2022/08/26 05:00:59;;;;;;;;;;;12.10;99.90;;;;;;5089657;28;19924;-56
2022/08/26 05:03:26;;;;;;;;;;;12.10;99.90;;;;;;5070886;28;19924;-56
2022/08/26 05:05:57;;;;;;;;;;;12.10;99.90;;;;;;5066300;28;20007;-56
2022/08/26 05:08:25;;;;;;;;;;;12.10;99.90;;;;;;5073449;28;19928;-58
2022/08/26 05:10:54;;;;;;;;;;;11.40;99.90;;;;;;5068540;28;19959;-57
2022/08/26 05:13:24;;;;;;;;;;;12.20;99.90;;;;;;5078625;28;19931;-57
2022/08/26 05:15:52;;;;;;;;;;;12.30;99.90;;;;;;5085896;28;20648;-57
2022/08/26 05:18:21;;;;;;;;;;;12.30;99.90;;;;;;5085926;28;19935;-56
2022/08/26 05:20:51;;;;;;;;;;;12.30;99.90;;;;;;5086413;28;19927;-56
2022/08/26 05:23:21;;;;;;;;;;;12.40;99.90;;;;;;5085176;28;19928;-56
2022/08/26 05:25:50;;;;;;;;;;;12.40;99.90;;;;;;5068572;28;20284;-56
2022/08/26 05:28:23;;;;;;;;;;;12.40;99.90;;;;;;5079993;28;19924;-55
2022/08/26 05:30:51;;;;;;;;;;;12.50;99.90;;;;;;5086874;28;19931;-56
2022/08/26 05:33:18;;;;;;;;;;;12.50;99.90;;;;;;5084005;28;20505;-56
2022/08/26 05:35:46;;;;;;;;;;;12.50;99.90;;;;;;5086087;28;19935;-56
2022/08/26 05:38:15;;;;;;;;;;;12.50;99.90;;;;;;5084712;28;19935;-57
2022/08/26 05:40:45;;;;;;;;;;;12.60;99.90;;;;;;5065458;28;19935;-57
2022/08/26 05:43:12;;;;;;;;;;;12.60;99.90;;;;;;5071501;28;19924;-57
2022/08/26 05:45:41;;;;;;;;;;;12.70;99.90;;;;;;5071347;28;19924;-57
2022/08/26 05:48:13;;;;;;;;;;;12.70;99.90;;;;;;5077863;28;19927;-57
2022/08/26 05:50:44;;;;;;;;;;;12.70;99.90;;;;;;5088717;28;19928;-56
2022/08/26 05:53:12;;;;;;;;;;;12.70;99.90;;;;;;5087592;28;19924;-57
2022/08/26 05:55:50;;;;;;;;;;;12.80;99.90;;;;;;5068721;28;19932;-58
2022/08/26 05:58:21;;;;;;;;;;;12.80;99.90;;;;;;5077251;28;20504;-58
2022/08/26 06:00:56;;;;;;;;;;;12.80;99.90;;;;;;5088861;28;19931;-58
2022/08/26 06:03:23;;;;;;;;;;;12.80;99.90;;;;;;5087806;28;19924;-57
2022/08/26 06:05:51;;;;;;;;;;;12.80;99.90;;;;;;5088819;28;19924;-57
2022/08/26 06:08:20;;;;;;;;;;;12.80;99.90;;;;;;5086060;28;19924;-58
2022/08/26 06:10:52;;;;;;;;;;;12.80;99.90;;;;;;5072445;28;19924;-58
2022/08/26 06:13:22;;;;;;;;;;;12.90;99.90;;;;;;5080154;28;20375;-58
2022/08/26 06:15:50;;;;;;;;;;;12.90;99.90;;;;;;5088674;28;19931;-58
2022/08/26 06:18:37;;;;;;;;;;;12.90;99.90;;;;;;5085290;28;19931;-59
2022/08/26 06:21:16;;;;;;;;;;;13.00;99.90;;;;;;5085194;28;19931;-58
2022/08/26 06:26:32;;;;;;;;;;;13.20;99.90;;;;;;5085232;28;19924;-57
2022/08/26 06:28:59;;;;;;;;;;;13.20;99.90;;;;;;5088493;28;19931;-55
2022/08/26 06:31:31;;;;;;;;;;;13.30;99.90;;;;;;5086334;28;19924;-56
2022/08/26 06:33:59;;;;;;;;;;;13.40;99.90;;;;;;5066554;28;20501;-56
2022/08/26 06:36:29;;;;;;;;;;;13.40;99.90;;;;;;5086069;28;20022;-56
2022/08/26 06:39:04;;;;;;;;;;;13.50;99.90;;;;;;5090120;28;19927;-56
2022/08/26 06:41:33;;;;;;;;;;;13.60;99.90;;;;;;5091741;28;20303;-56
2022/08/26 06:44:01;;;;;;;;;;;13.70;99.90;;;;;;5090587;28;20360;-57
2022/08/26 06:46:29;;;;;;;;;;;13.70;99.90;;;;;;5092116;28;19931;-57
2022/08/26 06:48:57;;;;;;;;;;;13.80;99.90;;;;;;5091313;28;19928;-57
2022/08/26 06:51:28;;;;;;;;;;;13.80;99.90;;;;;;5080444;28;19932;-55
2022/08/26 06:53:58;;;;;;;;;;;13.90;99.90;;;;;;5088676;28;19928;-56
2022/08/26 06:56:30;;;;;;;;;;;13.90;99.90;;;;;;5073547;28;20403;-56
2022/08/26 06:58:58;;;;;;;;;;;14.00;99.90;;;;;;5073704;28;19924;-56
2022/08/26 07:01:27;;;;;;;;;;;14.00;99.90;;;;;;5070511;28;19932;-57
2022/08/26 07:03:58;;;;;;;;;;;14.00;99.90;;;;;;5085203;28;20394;-55
2022/08/26 07:06:27;;;;;;;;;;;14.10;99.90;;;;;;5072449;28;19928;-55
2022/08/26 07:09:00;;;;;;;;;;;14.10;99.90;;;;;;5085320;28;19924;-56
2022/08/26 07:11:30;;;;;;;;;;;14.20;99.90;;;;;;5091776;28;19924;-55
2022/08/26 07:13:57;;;;;;;;;;;14.30;99.90;;;;;;5091642;28;19951;-56
2022/08/26 07:16:27;;;;;;;;;;;14.70;99.90;;;;;;5091673;28;20291;-55
2022/08/26 07:18:56;;;;;;;;;;;14.30;99.90;;;;;;5091546;28;19924;-56
2022/08/26 07:21:24;;;;;;;;;;;14.40;99.90;;;;;;5091525;28;20330;-56
2022/08/26 07:23:52;;;;;;;;;;;14.40;99.90;;;;;;5091337;28;19931;-56
2022/08/26 07:26:27;;;;;;;;;;;14.40;99.90;;;;;;5090178;28;19924;-56
2022/08/26 07:28:56;;;;;;;;;;;14.50;99.90;;;;;;5088143;28;19928;-56
2022/08/26 07:31:26;;;;;;;;;;;14.50;99.90;;;;;;5089463;28;19931;-56
2022/08/26 07:33:56;;;;;;;;;;;14.90;99.90;;;;;;5086709;28;20457;-56
2022/08/26 07:36:23;;;;;;;;;;;14.70;99.90;;;;;;5071414;28;19931;-55
2022/08/26 07:38:51;;;;;;;;;;;14.80;99.90;;;;;;5076207;28;19932;-56
2022/08/26 07:41:21;;;;;;;;;;;14.80;99.90;;;;;;5070700;28;20757;-56
2022/08/26 07:43:49;;;;;;;;;;;14.90;99.90;;;;;;5085288;28;19924;-56
2022/08/26 07:46:18;;;;;;;;;;;15.00;99.90;;;;;;5083697;28;19999;-56
2022/08/26 07:48:56;;;;;;;;;;;15.00;99.90;;;;;;5071187;28;20392;-56
2022/08/26 07:51:24;;;;;;;;;;;15.10;99.90;;;;;;5073934;28;19947;-56
2022/08/26 07:53:51;;;;;;;;;;;15.10;99.90;;;;;;5079905;28;19931;-56
2022/08/26 07:56:20;;;;;;;;;;;15.20;99.90;;;;;;5071344;28;19954;-56
2022/08/26 07:58:52;;;;;;;;;;;15.20;99.90;;;;;;5086107;28;19932;-56
2022/08/26 08:01:22;;;;;;;;;;;15.30;99.90;;;;;;5089635;28;19928;-56
2022/08/26 08:03:50;;;;;;;;;;;15.40;99.90;;;;;;5088050;28;19931;-56
2022/08/26 08:06:19;;;;;;;;;;;15.50;99.90;;;;;;5070625;28;19929;-56
2022/08/26 08:08:46;;;;;;;;;;;15.70;99.90;;;;;;5073167;28;19925;-56
2022/08/26 08:11:19;;;;;;;;;;;15.80;99.90;;;;;;5069577;28;20308;-56
2022/08/26 08:13:48;;;;;;;;;;;15.80;99.90;;;;;;5078930;28;19928;-56
2022/08/26 08:16:27;;;;;;;;;;;15.90;99.90;;;;;;5067201;28;19939;-56
2022/08/26 08:18:58;;;;;;;;;;;15.90;99.90;;;;;;5073656;28;20454;-56
2022/08/26 08:21:26;;;;;;;;;;;16.00;99.90;;;;;;5069453;28;19924;-55
2022/08/26 08:23:55;;;;;;;;;;;15.90;99.90;;;;;;5086248;28;19931;-56
2022/08/26 08:26:24;;;;;;;;;;;16.00;99.90;;;;;;5080736;28;19931;-56
2022/08/26 08:28:56;;;;;;;;;;;16.00;99.90;;;;;;5078789;28;19925;-56
2022/08/26 08:31:25;;;;;;;;;;;16.00;99.90;;;;;;5071656;28;19935;-55
2022/08/26 08:34:12;;;;;;;;;;;16.10;99.90;;;;;;5079024;28;19935;-56
2022/08/26 08:36:40;;;;;;;;;;;16.20;99.90;;;;;;5079521;28;19924;-56
2022/08/26 08:39:08;;;;;;;;;;;16.20;99.90;;;;;;5071563;28;19925;-56
2022/08/26 08:41:54;;;;;;;;;;;16.30;99.90;;;;;;5070998;28;19924;-55
2022/08/26 08:44:23;;;;;;;;;;;16.40;99.90;;;;;;5071230;28;19932;-56
2022/08/26 08:47:11;;;;;;;;;;;16.50;99.90;;;;;;5088958;28;19932;-56
2022/08/26 08:49:39;;;;;;;;;;;16.60;99.90;;;;;;5078281;28;19928;-56
2022/08/26 08:52:15;;;;;;;;;;;16.70;99.90;;;;;;5073389;28;19928;-56
2022/08/26 08:54:42;;;;;;;;;;;16.80;99.90;;;;;;5077061;28;20410;-56
2022/08/26 08:57:15;;;;;;;;;;;16.90;99.90;;;;;;5067543;28;20410;-57
2022/08/26 08:59:52;;;;;;;;;;;17.10;99.90;;;;;;5070064;28;20293;-58
2022/08/26 09:02:26;;;;;;;;;;;17.20;99.90;;;;;;5068860;28;19935;-58
2022/08/26 09:05:01;;;;;;;;;;;17.40;99.90;;;;;;5086148;28;19924;-57
2022/08/26 09:07:39;;;;;;;;;;;17.40;99.90;;;;;;5086753;28;19924;-58
2022/08/26 09:10:12;;;;;;;;;;;17.50;99.90;;;;;;5069706;28;19931;-56
2022/08/26 09:12:41;;;;;;;;;;;17.60;99.90;;;;;;5074229;28;19924;-56
2022/08/26 09:15:16;;;;;;;;;;;17.60;99.90;;;;;;5082399;28;19928;-56
2022/08/26 09:17:58;;;;;;;;;;;17.70;99.90;;;;;;5074121;28;19924;-58
2022/08/26 09:20:36;;;;;;;;;;;17.80;99.90;;;;;;5082465;28;19925;-56
2022/08/26 09:23:03;;;;;;;;;;;17.90;99.90;;;;;;5077338;28;19923;-56
2022/08/26 09:25:31;;;;;;;;;;;17.90;99.90;;;;;;5075788;28;20378;-57
2022/08/26 09:28:00;;;;;;;;;;;17.90;99.90;;;;;;5071963;28;19934;-57
2022/08/26 09:30:31;;;;;;;;;;;17.90;99.90;;;;;;5068547;28;19928;-57
2022/08/26 09:33:04;;;;;;;;;;;18.00;99.90;;;;;;5076966;28;20005;-57
2022/08/26 09:35:38;;;;;;;;;;;18.10;99.90;;;;;;5086734;28;19924;-56
2022/08/26 09:38:26;;;;;;;;;;;18.20;99.90;;;;;;5088496;28;19932;-57
2022/08/26 09:41:02;;;;;;;;;;;18.30;99.90;;;;;;5068753;28;19924;-56
2022/08/26 09:43:31;;;;;;;;;;;18.40;99.90;;;;;;5079094;28;20387;-56
2022/08/26 09:46:11;;;;;;;;;;;18.40;99.90;;;;;;5073010;28;19947;-57
2022/08/26 09:48:40;;;;;;;;;;;18.50;99.90;;;;;;5079583;28;19924;-56
2022/08/26 09:51:23;;;;;;;;;;;18.50;99.90;;;;;;5070369;28;19932;-57
2022/08/26 09:53:52;;;;;;;;;;;18.60;99.90;;;;;;5082829;28;20310;-56
2022/08/26 09:56:25;;;;;;;;;;;18.60;99.90;;;;;;5068931;28;19936;-56
2022/08/26 09:58:55;;;;;;;;;;;18.70;99.80;;;;;;5082537;28;20383;-56
2022/08/26 10:01:22;;;;;;;;;;;18.80;99.20;;;;;;5081818;28;19928;-57
2022/08/26 10:03:50;;;;;;;;;;;18.80;99.10;;;;;;5078577;28;20407;-57
2022/08/26 10:06:21;;;;;;;;;;;18.90;99.20;;;;;;5068647;28;19947;-57
2022/08/26 10:08:57;;;;;;;;;;;18.90;99.30;;;;;;5082487;28;19947;-57
2022/08/26 10:11:26;;;;;;;;;;;18.90;99.30;;;;;;5071091;28;19928;-56
2022/08/26 10:13:55;;;;;;;;;;;18.90;99.30;;;;;;5083526;28;19931;-57
2022/08/26 10:16:25;;;;;;;;;;;18.90;99.30;;;;;;5071390;28;19925;-57
2022/08/26 10:18:59;;;;;;;;;;;19.00;98.80;;;;;;5087217;28;19938;-56
2022/08/26 10:21:41;;;;;;;;;;;19.00;99.00;;;;;;5081359;28;19924;-57
2022/08/26 10:24:13;;;;;;;;;;;19.10;99.30;;;;;;5088540;28;19935;-57
2022/08/26 10:27:11;;;;;;;;;;;19.30;99.30;;;;;;5073489;28;19935;-56
2022/08/26 10:29:44;;;;;;;;;;;19.40;98.90;;;;;;5058610;28;19932;-57
2022/08/26 10:32:23;;;;;;;;;;;19.60;98.80;;;;;;5088024;28;20302;-57
2022/08/26 10:34:51;;;;;;;;;;;19.70;98.50;;;;;;5092518;28;20322;-57
2022/08/26 10:37:21;;;;;;;;;;;19.80;98.40;;;;;;5092133;28;19931;-57
2022/08/26 10:40:07;;;;;;;;;;;19.90;98.20;;;;;;5090074;28;19924;-57
2022/08/26 10:42:41;;;;;;;;;;;20.00;98.30;;;;;;5089132;28;19924;-57
2022/08/26 10:45:14;;;;;;;;;;;20.20;98.20;;;;;;5092278;28;19949;-57
2022/08/26 10:47:47;;;;;;;;;;;20.30;97.70;;;;;;5091208;28;19928;-57
2022/08/26 10:50:15;;;;;;;;;;;20.30;97.90;;;;;;5075605;28;19991;-57
2022/08/26 10:52:53;;;;;;;;;;;20.40;97.80;;;;;;5087330;28;20406;-57
2022/08/26 10:55:41;;;;;;;;;;;20.60;97.20;;;;;;5087125;28;20371;-57
2022/08/26 10:58:29;;;;;;;;;;;20.70;96.90;;;;;;5080532;28;19928;-57
2022/08/26 11:03:59;;;;;;;;;;;20.90;96.20;;;;;;5086284;28;20460;-57
2022/08/26 11:06:28;;;;;;;;;;;20.80;96.50;;;;;;5092000;28;19928;-57
2022/08/26 11:08:55;;;;;;;;;;;20.70;96.20;;;;;;5078705;28;20434;-57
2022/08/26 11:11:38;;;;;;;;;;;20.50;96.20;;;;;;5072897;28;19928;-57
2022/08/26 11:14:09;;;;;;;;;;;20.40;96.30;;;;;;5077334;28;19931;-57
2022/08/26 11:16:41;;;;;;;;;;;20.30;96.90;;;;;;5078289;28;19924;-57
2022/08/26 11:19:29;;;;;;;;;;;20.20;97.30;;;;;;5087973;28;19928;-57
2022/08/26 11:22:23;;;;;;;;;;;20.30;97.50;;;;;;5073280;28;19931;-57
2022/08/26 11:24:56;;;;;;;;;;;20.50;97.20;;;;;;5091005;28;19931;-57
2022/08/26 11:27:24;;;;;;;;;;;20.60;96.80;;;;;;5080154;28;20378;-57
2022/08/26 11:30:01;;;;;;;;;;;20.60;96.60;;;;;;5086362;28;20276;-58
2022/08/26 11:32:37;;;;;;;;;;;20.70;96.10;;;;;;5083629;28;19923;-57
2022/08/26 11:35:28;;;;;;;;;;;20.80;96.10;;;;;;5093414;28;19924;-57
2022/08/26 11:37:57;;;;;;;;;;;21.00;95.90;;;;;;5073633;28;20106;-57
2022/08/26 11:40:30;;;;;;;;;;;21.30;95.40;;;;;;5071505;28;19928;-56
2022/08/26 11:43:12;;;;;;;;;;;21.50;95.40;;;;;;5082575;28;19928;-56
2022/08/26 11:45:42;;;;;;;;;;;21.80;95.20;;;;;;5083665;28;19932;-56
2022/08/26 11:48:17;;;;;;;;;;;21.90;94.60;;;;;;5082008;28;19935;-57
2022/08/26 11:50:53;;;;;;;;;;;22.10;94.60;;;;;;5072290;28;19924;-56
2022/08/26 11:53:21;;;;;;;;;;;22.40;94.40;;;;;;5084453;28;19936;-56
2022/08/26 11:55:50;;;;;;;;;;;22.80;94.90;;;;;;5087950;28;19924;-56
2022/08/26 11:58:20;;;;;;;;;;;23.40;94.00;;;;;;5080263;28;19931;-56
2022/08/26 12:01:06;;;;;;;;;;;23.80;93.80;;;;;;5085111;28;19935;-57
2022/08/26 12:03:40;;;;;;;;;;;24.10;91.80;;;;;;5080812;28;19932;-59
2022/08/26 12:06:15;;;;;;;;;;;24.00;91.10;;;;;;5083713;28;19928;-57
2022/08/26 12:08:43;;;;;;;;;;;24.00;90.50;;;;;;5070401;28;19948;-57
2022/08/26 12:11:18;;;;;;;;;;;23.70;90.30;;;;;;5081246;28;20398;-56
2022/08/26 12:13:53;;;;;;;;;;;23.40;90.80;;;;;;5085411;28;19928;-56
2022/08/26 12:16:25;;;;;;;;;;;23.30;90.60;;;;;;5084182;28;19924;-56
2022/08/26 12:18:54;;;;;;;;;;;23.00;90.60;;;;;;5083339;28;19931;-56
2022/08/26 12:21:23;;;;;;;;;;;22.90;91.10;;;;;;5072498;28;19928;-56
2022/08/26 12:23:53;;;;;;;;;;;22.80;91.30;;;;;;5080563;28;20285;-56
2022/08/26 12:26:23;;;;;;;;;;;22.70;91.30;;;;;;5066885;28;19924;-57
2022/08/26 12:28:58;;;;;;;;;;;22.70;91.50;;;;;;5072587;28;19932;-57
2022/08/26 12:31:30;;;;;;;;;;;22.60;91.40;;;;;;5071582;28;19932;-57
2022/08/26 12:33:59;;;;;;;;;;;22.40;91.20;;;;;;5075792;28;19939;-57
2022/08/26 12:36:38;;;;;;;;;;;22.20;91.40;;;;;;5070520;28;19935;-56
2022/08/26 12:39:07;;;;;;;;;;;22.10;91.90;;;;;;5072866;28;19935;-57
2022/08/26 12:41:39;;;;;;;;;;;22.10;91.80;;;;;;5072390;28;20593;-57
2022/08/26 12:44:07;;;;;;;;;;;22.00;91.70;;;;;;5092524;27;19928;-56
2022/08/26 12:46:34;;;;;;;;;;;22.00;92.00;;;;;;5076133;28;19928;-56
2022/08/26 12:49:02;;;;;;;;;;;22.00;92.20;;;;;;5077557;28;19924;-57
2022/08/26 12:51:31;;;;;;;;;;;22.10;92.40;;;;;;5069604;28;19940;-56
2022/08/26 12:53:58;;;;;;;;;;;22.10;92.60;;;;;;5080008;28;19924;-57
2022/08/26 12:56:29;;;;;;;;;;;22.20;92.10;;;;;;5085201;28;19924;-57
2022/08/26 12:59:01;;;;;;;;;;;22.20;91.90;;;;;;5082729;28;19924;-57
2022/08/26 13:01:36;;;;;;;;;;;22.20;92.00;;;;;;5070552;28;19931;-56
2022/08/26 13:04:05;;;;;;;;;;;22.20;91.60;;;;;;5071656;28;19955;-56
2022/08/26 13:06:33;;;;;;;;;;;22.20;91.80;;;;;;5069528;28;19931;-56
2022/08/26 13:09:01;;;;;;;;;;;22.20;91.80;;;;;;5079523;28;19928;-56
2022/08/26 13:11:34;;;;;;;;;;;22.20;92.00;;;;;;5086070;28;20139;-56
2022/08/26 13:14:06;;;;;;;;;;;22.20;92.40;;;;;;5085873;28;19935;-57
2022/08/26 13:16:34;;;;;;;;;;;22.20;92.10;;;;;;5086038;28;20394;-56
2022/08/26 13:19:06;;;;;;;;;;;22.20;92.10;;;;;;5076632;28;19932;-56
2022/08/26 13:21:42;;;;;;;;;;;22.20;92.20;;;;;;5074806;28;19925;-57
2022/08/26 13:24:11;;;;;;;;;;;22.20;92.20;;;;;;5074768;28;19932;-57
2022/08/26 13:26:42;;;;;;;;;;;22.20;92.00;;;;;;5064815;28;20375;-56
2022/08/26 13:29:10;;;;;;;;;;;22.10;92.10;;;;;;5079105;28;19967;-57
2022/08/26 13:31:39;;;;;;;;;;;21.90;92.30;;;;;;5064284;28;19924;-57
2022/08/26 13:34:07;;;;;;;;;;;22.00;92.40;;;;;;5074286;28;19924;-57
2022/08/26 13:36:34;;;;;;;;;;;21.90;92.30;;;;;;5065673;28;19924;-57
2022/08/26 13:39:04;;;;;;;;;;;21.80;92.30;;;;;;5082533;28;19924;-57
2022/08/26 13:41:32;;;;;;;;;;;21.70;92.60;;;;;;5078013;28;19925;-57
2022/08/26 13:43:59;;;;;;;;;;;21.80;92.60;;;;;;5074610;28;19924;-57
2022/08/26 13:46:27;;;;;;;;;;;21.80;92.80;;;;;;5079288;28;19939;-57
2022/08/26 13:48:58;;;;;;;;;;;21.90;92.40;;;;;;5069994;28;19941;-58
2022/08/26 13:51:26;;;;;;;;;;;21.90;92.60;;;;;;5075475;28;19928;-57
2022/08/26 13:53:54;;;;;;;;;;;21.90;92.70;;;;;;5071717;28;19929;-57
2022/08/26 13:56:21;;;;;;;;;;;21.90;92.50;;;;;;5075898;28;19924;-57
2022/08/26 13:58:49;;;;;;;;;;;22.00;92.60;;;;;;5081540;28;19932;-57
2022/08/26 14:01:17;;;;;;;;;;;22.20;93.00;;;;;;5077612;28;19953;-57
2022/08/26 14:03:45;;;;;;;;;;;22.60;93.20;;;;;;5070595;28;19929;-58
2022/08/26 14:06:13;;;;;;;;;;;23.40;93.20;;;;;;5074022;28;19932;-58
2022/08/26 14:08:40;;;;;;;;;;;24.40;92.00;;;;;;5078145;28;19924;-57
2022/08/26 14:11:08;;;;;;;;;;;25.30;90.00;;;;;;5073236;28;19925;-57
2022/08/26 14:13:37;;;;;;;;;;;25.90;87.80;;;;;;5079273;28;19925;-57
2022/08/26 14:16:07;;;;;;;;;;;26.40;88.20;;;;;;5072379;28;19929;-57
2022/08/26 14:18:38;;;;;;;;;;;26.90;85.40;;;;;;5068409;28;20303;-58
2022/08/26 14:21:11;;;;;;;;;;;27.40;82.50;;;;;;5075847;28;20380;-57
2022/08/26 14:23:40;;;;;;;;;;;27.70;83.20;;;;;;5077922;28;20415;-58
2022/08/26 14:26:09;;;;;;;;;;;28.20;81.00;;;;;;5067886;28;19932;-57
2022/08/26 14:28:55;;;;;;;;;;;28.30;77.80;;;;;;5080163;28;19924;-57
2022/08/26 14:31:22;;;;;;;;;;;28.60;79.70;;;;;;5078497;28;20391;-57
2022/08/26 14:33:50;;;;;;;;;;;28.70;77.70;;;;;;5081287;28;19924;-57
2022/08/26 14:36:27;;;;;;;;;;;28.80;76.50;;;;;;5068459;28;20222;-57
2022/08/26 14:38:55;;;;;;;;;;;28.90;77.00;;;;;;5068278;28;19924;-57
2022/08/26 14:41:24;;;;;;;;;;;28.90;75.70;;;;;;5072690;28;20377;-57
2022/08/26 14:43:56;;;;;;;;;;;29.20;76.70;;;;;;5076513;28;19951;-58
2022/08/26 14:46:27;;;;;;;;;;;29.40;76.80;;;;;;5069650;28;19931;-57